Rincon, New Mexico
Current Conditions -  °F | °C
As of 9:15 PM on Tuesday 27 Jan 2015 (Local Time) from KLRU Reporting Station
Clear Clear  
Wind Chill: 46°   Ceiling: Unl
Heat Index: 48°   Visibility: 10mi
Dew Point: 41°   Wind: 6mph
Humidity: 75%   Direction: 280°W
Pressure: 30.24"   Gusts: NA
Location:  32.67°N, 107.06°W
Report Text: KLRU 280415Z AUTO 28005KT 10SM CLR 09/05 A3024 RMK AO2 T00910048
Loading
Personal Weather Stations






























Interactive Weather Map New forecast layout! Learn more

10-Day Weather Forecast

Advertisements
Track Severe Weather on mobile